Terminal Aerodrome Forecast
Issued by NWS

Home | Current Version | Previous Version | Text Only | Print | Product List | Glossary On
Versions: 1 2 3 4 5 6 7 8 9 10 11 12 13 14 15 16 17 18 19
000
FTUS43 KDVN 181700
TAFCID
TAF
KCID 181726Z 1818/1918 13009KT P6SM SCT030
     FM190000 13005KT P6SM SKC
     FM190900 16005KT 4SM BR FEW003
     FM191500 18011KT P6SM SCT250=

USA.gov is the U.S. government's official web portal to all federal, state and local government web resources and services.